Sloughhouse, California
Current Conditions -  °F | °C
As of 7:45 PM on Wednesday 28 Jan 2015 (Local Time) from KMHR Reporting Station
Clear Clear  
Wind Chill: 46°   Ceiling: Unl
Heat Index: 48°   Visibility: 10mi
Dew Point: 48°   Wind: 5mph
Humidity: 100%   Direction: 90°E
Pressure: 30.17"   Gusts: NA
Location:  38.5°N, 121.19°W
Report Text: KMHR 290345Z 09004KT 10SM SKC 09/09 A3017
Loading
Personal Weather Stations






























Interactive Weather Map New forecast layout! Learn more

10-Day Weather Forecast

Advertisements
Track Severe Weather on mobile